logo
App data

A Druid's Duel

A Druid's Duel is a fast paced turn-based strategy game set in a world of Celtic lore where players can create and destroy the board by harnessing the power of nature.
Store | Hub | SteamDB | Site
Developer: Thoughtshelter Games Publisher: Surprise Attack
Genre: Indie, Strategy
Languages: English
Tags: Indie (35), Strategy (26), Multiplayer (25), Singleplayer (15), Turn-Based Strategy (14), Tactical (6)
Category: Single-player, Multi-player, PvP, Shared/Split Screen PvP, Shared/Split Screen, Cross-Platform Multiplayer, Steam Achievements, Steam Trading Cards, Remote Play Together
Release date: Feb 25, 2015
Price: $7.99
Old userscore: 73% Metascore: 70%
Owners: 0 .. 20,000
Followers: 1,083
Peak concurrent players yesterday: 1
Playtime total: 03:36 (average) 04:37 (median)

Steam Spy is still in beta, so expect major bugs.

Owners data:

Access restricted.

This feature is only available to users with special access rights. Sorry.

If you want to proceed, you need to register or log in first and then back Steam Spy on Patreon. Look for Indie or Pro pledge.

Don't forget to use the same email as on Steam Spy!

If you've recently backed Steam Spy on Patreon, please note, that it might take around 15 minutes for your access rights to sync. In most cases you'll need to re-login on Steam Spy too.

Audience in 2 weeks:

Access restricted.

This feature is only available to users with special access rights. Sorry.

If you want to proceed, you need to register or log in first and then back Steam Spy on Patreon. Look for Indie or Pro pledge.

Don't forget to use the same email as on Steam Spy!

If you've recently backed Steam Spy on Patreon, please note, that it might take around 15 minutes for your access rights to sync. In most cases you'll need to re-login on Steam Spy too.

Peak daily concurrent players:

CCU data courtesy of SteamDB. Used with permission.

Hourly concurrent players:

Daily Twitch stats:

Hourly Twitch stats:

Followers over time

Access restricted.

This feature is only available to users with special access rights. Sorry.

If you want to proceed, you need to register or log in first and then back Steam Spy on Patreon. Look for Indie or Pro pledge.

Don't forget to use the same email as on Steam Spy!

If you've recently backed Steam Spy on Patreon, please note, that it might take around 15 minutes for your access rights to sync. In most cases you'll need to re-login on Steam Spy too.

Views for top 50 videos on YouTube for this game:

Games similar to this one:

# Game Release date
Price
Score rank
(Userscore / Metascore)
Owners
Players
Playtime (Median)
1 Cherry Tree High I! My! Girls! Nov 20, 2014 $3.99N/A (N/A)20,000 .. 50,0000%00:00 (00:00)
2 Super Galaxy Squadron EX Turbo Jan 23, 2015 $9.99N/A (N/A)50,000 .. 100,0000%00:00 (00:00)
3 Three Fourths Home: Extended Edition Mar 20, 2015 $4.99N/A (N/A/77%)20,000 .. 50,0000%00:00 (00:00)
4 Disillusions Manga Horror Jan 16, 2015 $0.99N/A (N/A)20,000 .. 50,0000%00:00 (00:00)
5 It came from space and ate our brains Mar 19, 2015 $14.99N/A (N/A)200,000 .. 500,0000%00:00 (00:00)
6 Super Treasure Arena Dec 24, 2018 $1.59N/A (N/A)0 .. 20,0000%00:00 (00:00)
7 Bermuda Mar 17, 2015 $2.99N/A (N/A)50,000 .. 100,0000%00:00 (00:00)
8 Ephemerid: A Musical Adventure Feb 3, 2015 $1.99N/A (N/A)20,000 .. 50,0000%00:00 (00:00)
9 Dwarf Tower Dec 23, 2014 $0.99N/A (N/A)20,000 .. 50,0000%00:00 (00:00)
10 NEO AQUARIUM - The King of Crustaceans - Jun 8, 2015 $8.99N/A (N/A)50,000 .. 100,0000%00:00 (00:00)
11 Grass Simulator Apr 1, 2015 $4.99N/A (N/A)20,000 .. 50,0000%00:00 (00:00)
12 Master Spy Sep 8, 2015 $9.99N/A (N/A/68%)50,000 .. 100,0000%00:00 (00:00)
13 Instant Dungeon! Nov 25, 2014 $1.99N/A (N/A)0 .. 20,0000%00:00 (00:00)
14 The Sun and Moon Nov 14, 2014 $6.99N/A (N/A)20,000 .. 50,0000%00:00 (00:00)
15 ONE DAY for Ched Sep 12, 2014 $3.99N/A (N/A)20,000 .. 50,0000%00:00 (00:00)
16 Chariot Nov 12, 2014 $14.99N/A (N/A/76%)100,000 .. 200,0000%00:00 (00:00)
17 Velocibox Sep 8, 2014 $4.99N/A (N/A)50,000 .. 100,0000%00:00 (00:00)
18 The Masterplan Jun 4, 2015 $19.99N/A (N/A/68%)50,000 .. 100,0000%00:00 (00:00)
19 Beyond Eyes Aug 11, 2015 N/AN/A (N/A/60%)100,000 .. 200,0000%00:00 (00:00)
20 One More Line Aug 25, 2015 $2.99N/A (N/A)20,000 .. 50,0000%00:00 (00:00)
21 Inside My Radio May 11, 2015 $2.99N/A (N/A/68%)20,000 .. 50,0000%00:00 (00:00)
22 Canabalt Apr 30, 2015 $2.99N/A (N/A)20,000 .. 50,0000%00:00 (00:00)
23 Choice Chamber Jul 16, 2015 $9.99N/A (N/A)20,000 .. 50,0000%00:00 (00:00)
24 Spellsworn Mar 13, 2018 FreeN/A (N/A)100,000 .. 200,0000%00:00 (00:00)
25 Lumini Sep 3, 2015 $12.99N/A (N/A/69%)0 .. 20,0000%00:00 (00:00)
26 Polyball Dec 1, 2017 $14.99N/A (N/A)200,000 .. 500,0000%00:00 (00:00)
27 Stray Cat Crossing Aug 28, 2015 $2.99N/A (N/A)20,000 .. 50,0000%00:00 (00:00)
28 Evertown Jan 11, 2016 $1.99N/A (N/A)0 .. 20,0000%00:00 (00:00)
29 Mini Thief Oct 12, 2018 $1.99N/A (N/A)20,000 .. 50,0000%00:00 (00:00)
30 Ben and Ed - Blood Party Feb 13, 2018 $14.99N/A (N/A)100,000 .. 200,0000%00:00 (00:00)
31 The Purge Day Nov 16, 2016 $2.99N/A (N/A)0 .. 20,0000%00:00 (00:00)
32 Boogeyman 2 Feb 7, 2017 $4.99N/A (N/A)20,000 .. 50,0000%00:00 (00:00)
33 Old Man's Journey May 17, 2017 $7.99N/A (N/A/76%)100,000 .. 200,0000%00:00 (00:00)
34 Party of Sin Dec 13, 2012 $5.99N/A (N/A)50,000 .. 100,0000%00:00 (00:00)
35 Escape Goat Oct 9, 2013 $4.99N/A (N/A)20,000 .. 50,0000%00:00 (00:00)
36 The Novelist Dec 10, 2013 $4.99N/A (N/A/66%)100,000 .. 200,0000%00:00 (00:00)
37 Super Puzzle Platformer Deluxe May 24, 2013 $7.99N/A (N/A)20,000 .. 50,0000%00:00 (00:00)
38 Rush Bros. May 24, 2013 $9.99N/A (N/A)100,000 .. 200,0000%00:00 (00:00)
39 Bad Hotel Oct 16, 2013 $4.99N/A (N/A)50,000 .. 100,0000%00:00 (00:00)
40 Retro/Grade Mar 20, 2013 $2.49N/A (N/A)50,000 .. 100,0000%00:00 (00:00)
41 Ultratron Mar 18, 2013 $9.99N/A (N/A)100,000 .. 200,0000%00:00 (00:00)
42 Transcripted Jun 19, 1983 $7.99N/A (N/A/78%)0 .. 20,0000%00:00 (00:00)
43 Montague's Mount Nov 19, 2013 $4.99N/A (N/A/39%)20,000 .. 50,0000%00:00 (00:00)
44 Sugar Cube: Bittersweet Factory Nov 7, 2012 $6.99N/A (N/A)20,000 .. 50,0000%00:00 (00:00)
45 Unmechanical Aug 8, 2012 $9.99N/A (N/A/74%)100,000 .. 200,0000%00:00 (00:00)
46 Lumino City Dec 2, 2014 $12.99N/A (N/A/70%)200,000 .. 500,0000%00:00 (00:00)
47 Titan Attacks! Feb 3, 2012 $9.99N/A (N/A)50,000 .. 100,0000%00:00 (00:00)
48 Really Big Sky Feb 24, 2012 $4.99N/A (N/A)500,000 .. 1,000,0000%00:00 (00:00)
49 Critter Crunch Sep 11, 2012 $6.99N/A (N/A)20,000 .. 50,0000%00:00 (00:00)
50 Madballs in Babo:Invasion Sep 17, 2009 $4.99N/A (N/A/79%)50,000 .. 100,0000%00:00 (00:00)
51 The Wonderful End of the World Jan 25, 2008 $9.99N/A (N/A/69%)100,000 .. 200,0000%00:00 (00:00)
52 Ballpoint Universe - Infinite Dec 17, 2013 $3.99N/A (N/A)50,000 .. 100,0000%00:00 (00:00)
53 NaissanceE Feb 13, 2014 FreeN/A (N/A/66%)100,000 .. 200,0000%00:00 (00:00)
54 //N.P.P.D. RUSH//- The milk of Ultraviolet Feb 13, 2014 $3.99N/A (N/A)100,000 .. 200,0000%00:00 (00:00)
55 RONIN Jun 30, 2015 $12.99N/A (N/A/70%)100,000 .. 200,0000%00:00 (00:00)
56 Canyon Capers Apr 25, 2014 $6.99N/A (N/A)200,000 .. 500,0000%00:00 (00:00)
57 Rabbit Hole 3D: Steam Edition Apr 25, 2014 $2.99N/A (N/A)50,000 .. 100,0000%00:00 (00:00)
58 ReignMaker Apr 16, 2014 $14.99N/A (N/A)100,000 .. 200,0000%00:00 (00:00)
59 Volt Apr 14, 2014 $0.99N/A (N/A)100,000 .. 200,0000%00:00 (00:00)
60 Three Dead Zed Jul 7, 2014 $5.99N/A (N/A)50,000 .. 100,0000%00:00 (00:00)
61 6180 the moon Sep 19, 2014 $3.99N/A (N/A)0 .. 20,0000%00:00 (00:00)
62 Chicken Invaders 4 Jun 6, 2014 $4.99N/A (N/A)20,000 .. 50,0000%00:00 (00:00)
63 Rhythm Destruction Jun 16, 2014 $4.99N/A (N/A)50,000 .. 100,0000%00:00 (00:00)
64 Team Indie Oct 8, 2014 N/AN/A (N/A)50,000 .. 100,0000%00:00 (00:00)
65 Echo of the Wilds Jun 10, 2014 $3.84N/A (N/A)0 .. 20,0000%00:00 (00:00)
66 OTTTD Aug 6, 2014 $7.99N/A (N/A)0 .. 20,0000%00:00 (00:00)

Tags over time:

Access restricted.

This feature is only available to users with special access rights. Sorry.

If you want to proceed, you need to register or log in first and then back Steam Spy on Patreon. Look for Indie or Pro pledge.

Don't forget to use the same email as on Steam Spy!

If you've recently backed Steam Spy on Patreon, please note, that it might take around 15 minutes for your access rights to sync. In most cases you'll need to re-login on Steam Spy too.

Owners of this game also own:

Access restricted.

This feature is only available to users with special access rights. Sorry.

If you want to proceed, you need to register or log in first and then back Steam Spy on Patreon. Look for Indie or Pro pledge.

Don't forget to use the same email as on Steam Spy!

If you've recently backed Steam Spy on Patreon, please note, that it might take around 15 minutes for your access rights to sync. In most cases you'll need to re-login on Steam Spy too.

Playtime distribution:

Access restricted.

This feature is only available to users with special access rights. Sorry.

If you want to proceed, you need to register or log in first and then back Steam Spy on Patreon. Look for Indie or Pro pledge.

Don't forget to use the same email as on Steam Spy!

If you've recently backed Steam Spy on Patreon, please note, that it might take around 15 minutes for your access rights to sync. In most cases you'll need to re-login on Steam Spy too.

Playtime (2 weeks):

Access restricted.

This feature is only available to users with special access rights. Sorry.

If you want to proceed, you need to register or log in first and then back Steam Spy on Patreon. Look for Indie or Pro pledge.

Don't forget to use the same email as on Steam Spy!

If you've recently backed Steam Spy on Patreon, please note, that it might take around 15 minutes for your access rights to sync. In most cases you'll need to re-login on Steam Spy too.

User reviews:

Login required.

Please register or log in to see this information.